SS Sun — DSMA6 — position and weather

sailwx.info

Track history (hours):
 
Tides and Currents Weather Stations Pressure Air Temp Water Temp Dewpoint Dewpoint Depression Visibility Wind Speed Wind Dir Waves Ship Positions

SS Sun

Last reported at 2018-Jun-09 08:12 UTC. Time now 2018-Jun-22 05:34 UTC.
Position N 34°25' E 134°21'.
Warning: this ship's position is 12 days out of date.

Length 79 m; draft 5.5 m.

Type: Cargo ship. MMSI: 441960000.

Date/timePositionNaut miles runAvg speedWind from/ knotsBaromVisibWave heightAir tempDewpointWater temp
2018-Jun-09 08:12N 34°25' E 134°21'2 9.6
2018-Jun-09 07:58N 34°26' E 134°24'4 9.4
2018-Jun-09 07:30N 34°27' E 134°29'5 9.8
2018-Jun-09 07:00N 34°29' E 134°34'5 9.9
2018-Jun-09 06:30N 34°31' E 134°40'5 9.8
2018-Jun-09 06:00N 34°33' E 134°46'5 9.9
2018-Jun-09 05:30N 34°35' E 134°51'5 9.8
2018-Jun-09 04:57N 34°37' E 134°57'4 8.3
2018-Jun-09 04:30N 34°37' E 135°02'4 7.3
2018-Jun-09 04:00N 34°36' E 135°06'5 9.5
2018-Jun-09 03:30N 34°36' E 135°12'5 9.8
2018-Jun-09 03:00N 34°36' E 135°18'5 9.3
2018-Jun-09 02:30N 34°36' E 135°23'3 0.8
2018-Jun-08 22:24N 34°35' E 135°27'0 0.0
2018-Jun-08 22:00N 34°35' E 135°27'0 0.0
2018-Jun-08 21:30N 34°35' E 135°27'0 0.0
2018-Jun-06 20:11N 34°35' E 135°27'0 0.0
2018-Jun-06 18:17N 34°35' E 135°27'0 0.0
2018-Jun-06 17:53N 34°35' E 135°27'0 0.0
2018-Jun-06 17:29N 34°35' E 135°27'0 0.0
2018-Jun-06 04:11N 34°35' E 135°27'0 0.0
2018-Jun-06 03:53N 34°35' E 135°27'0 0.0
2018-Jun-05 23:11N 34°35' E 135°27'0 0.0
2018-Jun-05 22:59N 34°35' E 135°27'0 0.0
2018-Jun-05 21:45N 34°35' E 135°27'1 3.4
2018-Jun-05 21:30N 34°35' E 135°26'3 5.1
2018-Jun-05 21:00N 34°36' E 135°23'0 0.0
2018-Jun-05 20:22N 34°36' E 135°23'0 0.0
2018-Jun-05 19:58N 34°36' E 135°23'0 0.0
2018-Jun-05 19:28N 34°36' E 135°23'0 0.0
2018-Jun-05 18:58N 34°36' E 135°23'0 0.0
2018-Jun-05 18:28N 34°36' E 135°23'0 0.0
2018-Jun-05 17:46N 34°36' E 135°23'0 0.0
2018-Jun-05 17:16N 34°36' E 135°23'0 0.0
2018-Jun-05 16:46N 34°36' E 135°23'0 0.0
2018-Jun-05 16:28N 34°36' E 135°23'0 0.0
2018-Jun-05 15:52N 34°36' E 135°23'0 0.0
2018-Jun-05 15:28N 34°36' E 135°23'0 0.1
2018-Jun-05 14:58N 34°36' E 135°23'0 0.0
2018-Jun-05 13:46N 34°36' E 135°23'0 0.0
2018-Jun-05 12:22N 34°36' E 135°23'0 0.0
2018-Jun-05 09:31N 34°36' E 135°23'0 3.0
2018-Jun-05 09:30N 34°36' E 135°23'4 7.6
2018-Jun-05 09:00N 34°39' E 135°26'2 0.4
2018-Jun-05 04:35N 34°38' E 135°27'0 0.0
2018-Jun-05 04:29N 34°38' E 135°27'0 0.0
2018-Jun-05 03:59N 34°38' E 135°27'0 0.0
2018-Jun-05 03:23N 34°38' E 135°27'0 0.1
2018-Jun-05 02:59N 34°38' E 135°27'0 0.1
2018-Jun-05 02:29N 34°38' E 135°27'0 0.0
2018-Jun-05 01:59N 34°38' E 135°27'0 0.0
2018-Jun-05 01:29N 34°38' E 135°27'0 0.0
2018-Jun-05 00:59N 34°38' E 135°27'0 0.0
2018-Jun-05 00:29N 34°38' E 135°27'0 0.0
2018-Jun-04 23:59N 34°38' E 135°27'0 0.1
2018-Jun-04 23:29N 34°38' E 135°27'0 0.0
2018-Jun-04 22:59N 34°38' E 135°27'2 3.2
2018-Jun-04 22:30N 34°39' E 135°26'3 5.7
2018-Jun-04 22:00N 34°37' E 135°23'0 0.1
2018-Jun-04 21:20N 34°37' E 135°23'0 0.1
2018-Jun-04 20:56N 34°37' E 135°23'0 0.1
2018-Jun-04 20:20N 34°37' E 135°23'0 0.0
2018-Jun-04 19:50N 34°37' E 135°23'0 0.0
2018-Jun-04 19:20N 34°37' E 135°23'0 0.0
2018-Jun-04 18:56N 34°37' E 135°23'0 0.1
2018-Jun-04 18:26N 34°37' E 135°23'0 0.0
2018-Jun-04 17:56N 34°37' E 135°23'0 0.0
2018-Jun-04 17:26N 34°37' E 135°23'0 0.0
2018-Jun-04 16:50N 34°37' E 135°23'0 0.1
2018-Jun-04 16:22N 34°37' E 135°23'0 0.0
2018-Jun-04 15:52N 34°37' E 135°23'0 0.1
2018-Jun-04 15:28N 34°37' E 135°23'0 0.0
2018-Jun-04 14:13N 34°37' E 135°23'0 0.0
2018-Jun-04 13:58N 34°37' E 135°23'0 0.0
2018-Jun-04 13:25N 34°37' E 135°23'0 0.0
2018-Jun-04 12:58N 34°37' E 135°23'0 0.0
2018-Jun-04 12:28N 34°37' E 135°23'0 0.0
2018-Jun-04 11:58N 34°37' E 135°23'0 0.0
2018-Jun-04 11:28N 34°37' E 135°23'0 0.0
2018-Jun-04 10:58N 34°37' E 135°23'0 0.0
2018-Jun-04 10:28N 34°37' E 135°23'0 0.0
2018-Jun-04 09:46N 34°37' E 135°23'0 0.1
2018-Jun-04 09:28N 34°37' E 135°23'0 0.0
2018-Jun-04 08:58N 34°37' E 135°23'0 0.0
2018-Jun-04 08:28N 34°37' E 135°23'0 0.0
2018-Jun-04 07:58N 34°37' E 135°23'0 0.0
2018-Jun-04 07:28N 34°37' E 135°23'0 0.0
2018-Jun-04 06:34N 34°37' E 135°23'0 0.1
2018-Jun-04 06:13N 34°37' E 135°23'1 3.1
2018-Jun-04 06:00N 34°37' E 135°22'4 8.7
2018-Jun-04 05:30N 34°36' E 135°17'5 9.1
2018-Jun-04 04:59N 34°35' E 135°11'5 9.5
2018-Jun-04 04:30N 34°35' E 135°06'4 8.6
2018-Jun-04 04:00N 34°37' E 135°01'9 7.6
2018-Jun-04 02:50N 34°34' E 134°51'3 8.4
2018-Jun-04 02:28N 34°33' E 134°47'4 8.4
2018-Jun-04 01:58N 34°31' E 134°43'4 8.7
2018-Jun-04 01:30N 34°29' E 134°38'4 8.8
2018-Jun-04 01:00N 34°28' E 134°34'5 8.8
2018-Jun-04 00:30N 34°26' E 134°28'6 8.8
2018-Jun-03 23:49N 34°24' E 134°22'  
Track history (hours):
 
Tides and Currents Weather Stations Pressure Air Temp Water Temp Dewpoint Dewpoint Depression Visibility Wind Speed Wind Dir Waves Ship Positions

SS Sun

Last reported at 2018-Jun-09 08:12 UTC. Time now 2018-Jun-22 05:34 UTC.
Position N 34°25' E 134°21'.
Warning: this ship's position is 12 days out of date.

Length 79 m; draft 5.5 m.

Type: Cargo ship. MMSI: 441960000.

Date/timePositionNaut miles runAvg speedWind from/ knotsBaromVisibWave heightAir tempDewpointWater temp
2018-Jun-09 08:12N 34°25' E 134°21'2 9.6
2018-Jun-09 07:58N 34°26' E 134°24'4 9.4
2018-Jun-09 07:30N 34°27' E 134°29'5 9.8
2018-Jun-09 07:00N 34°29' E 134°34'5 9.9
2018-Jun-09 06:30N 34°31' E 134°40'5 9.8
2018-Jun-09 06:00N 34°33' E 134°46'5 9.9
2018-Jun-09 05:30N 34°35' E 134°51'5 9.8
2018-Jun-09 04:57N 34°37' E 134°57'4 8.3
2018-Jun-09 04:30N 34°37' E 135°02'4 7.3
2018-Jun-09 04:00N 34°36' E 135°06'5 9.5
2018-Jun-09 03:30N 34°36' E 135°12'5 9.8
2018-Jun-09 03:00N 34°36' E 135°18'5 9.3
2018-Jun-09 02:30N 34°36' E 135°23'3 0.8
2018-Jun-08 22:24N 34°35' E 135°27'0 0.0
2018-Jun-08 22:00N 34°35' E 135°27'0 0.0
2018-Jun-08 21:30N 34°35' E 135°27'0 0.0
2018-Jun-06 20:11N 34°35' E 135°27'0 0.0
2018-Jun-06 18:17N 34°35' E 135°27'0 0.0
2018-Jun-06 17:53N 34°35' E 135°27'0 0.0
2018-Jun-06 17:29N 34°35' E 135°27'0 0.0
2018-Jun-06 04:11N 34°35' E 135°27'0 0.0
2018-Jun-06 03:53N 34°35' E 135°27'0 0.0
2018-Jun-05 23:11N 34°35' E 135°27'0 0.0
2018-Jun-05 22:59N 34°35' E 135°27'0 0.0
2018-Jun-05 21:45N 34°35' E 135°27'1 3.4
2018-Jun-05 21:30N 34°35' E 135°26'3 5.1
2018-Jun-05 21:00N 34°36' E 135°23'0 0.0
2018-Jun-05 20:22N 34°36' E 135°23'0 0.0
2018-Jun-05 19:58N 34°36' E 135°23'0 0.0
2018-Jun-05 19:28N 34°36' E 135°23'0 0.0
2018-Jun-05 18:58N 34°36' E 135°23'0 0.0
2018-Jun-05 18:28N 34°36' E 135°23'0 0.0
2018-Jun-05 17:46N 34°36' E 135°23'0 0.0
2018-Jun-05 17:16N 34°36' E 135°23'0 0.0
2018-Jun-05 16:46N 34°36' E 135°23'0 0.0
2018-Jun-05 16:28N 34°36' E 135°23'0 0.0
2018-Jun-05 15:52N 34°36' E 135°23'0 0.0
2018-Jun-05 15:28N 34°36' E 135°23'0 0.1
2018-Jun-05 14:58N 34°36' E 135°23'0 0.0
2018-Jun-05 13:46N 34°36' E 135°23'0 0.0
2018-Jun-05 12:22N 34°36' E 135°23'0 0.0
2018-Jun-05 09:31N 34°36' E 135°23'0 3.0
2018-Jun-05 09:30N 34°36' E 135°23'4 7.6
2018-Jun-05 09:00N 34°39' E 135°26'2 0.4
2018-Jun-05 04:35N 34°38' E 135°27'0 0.0
2018-Jun-05 04:29N 34°38' E 135°27'0 0.0
2018-Jun-05 03:59N 34°38' E 135°27'0 0.0
2018-Jun-05 03:23N 34°38' E 135°27'0 0.1
2018-Jun-05 02:59N 34°38' E 135°27'0 0.1
2018-Jun-05 02:29N 34°38' E 135°27'0 0.0
2018-Jun-05 01:59N 34°38' E 135°27'0 0.0
2018-Jun-05 01:29N 34°38' E 135°27'0 0.0
2018-Jun-05 00:59N 34°38' E 135°27'0 0.0
2018-Jun-05 00:29N 34°38' E 135°27'0 0.0
2018-Jun-04 23:59N 34°38' E 135°27'0 0.1
2018-Jun-04 23:29N 34°38' E 135°27'0 0.0
2018-Jun-04 22:59N 34°38' E 135°27'2 3.2
2018-Jun-04 22:30N 34°39' E 135°26'3 5.7
2018-Jun-04 22:00N 34°37' E 135°23'0 0.1
2018-Jun-04 21:20N 34°37' E 135°23'0 0.1
2018-Jun-04 20:56N 34°37' E 135°23'0 0.1
2018-Jun-04 20:20N 34°37' E 135°23'0 0.0
2018-Jun-04 19:50N 34°37' E 135°23'0 0.0
2018-Jun-04 19:20N 34°37' E 135°23'0 0.0
2018-Jun-04 18:56N 34°37' E 135°23'0 0.1
2018-Jun-04 18:26N 34°37' E 135°23'0 0.0
2018-Jun-04 17:56N 34°37' E 135°23'0 0.0
2018-Jun-04 17:26N 34°37' E 135°23'0 0.0
2018-Jun-04 16:50N 34°37' E 135°23'0 0.1
2018-Jun-04 16:22N 34°37' E 135°23'0 0.0
2018-Jun-04 15:52N 34°37' E 135°23'0 0.1
2018-Jun-04 15:28N 34°37' E 135°23'0 0.0
2018-Jun-04 14:13N 34°37' E 135°23'0 0.0
2018-Jun-04 13:58N 34°37' E 135°23'0 0.0
2018-Jun-04 13:25N 34°37' E 135°23'0 0.0
2018-Jun-04 12:58N 34°37' E 135°23'0 0.0
2018-Jun-04 12:28N 34°37' E 135°23'0 0.0
2018-Jun-04 11:58N 34°37' E 135°23'0 0.0
2018-Jun-04 11:28N 34°37' E 135°23'0 0.0
2018-Jun-04 10:58N 34°37' E 135°23'0 0.0
2018-Jun-04 10:28N 34°37' E 135°23'0 0.0
2018-Jun-04 09:46N 34°37' E 135°23'0 0.1
2018-Jun-04 09:28N 34°37' E 135°23'0 0.0
2018-Jun-04 08:58N 34°37' E 135°23'0 0.0
2018-Jun-04 08:28N 34°37' E 135°23'0 0.0
2018-Jun-04 07:58N 34°37' E 135°23'0 0.0
2018-Jun-04 07:28N 34°37' E 135°23'0 0.0
2018-Jun-04 06:34N 34°37' E 135°23'0 0.1
2018-Jun-04 06:13N 34°37' E 135°23'1 3.1
2018-Jun-04 06:00N 34°37' E 135°22'4 8.7
2018-Jun-04 05:30N 34°36' E 135°17'5 9.1
2018-Jun-04 04:59N 34°35' E 135°11'5 9.5
2018-Jun-04 04:30N 34°35' E 135°06'4 8.6
2018-Jun-04 04:00N 34°37' E 135°01'9 7.6
2018-Jun-04 02:50N 34°34' E 134°51'3 8.4
2018-Jun-04 02:28N 34°33' E 134°47'4 8.4
2018-Jun-04 01:58N 34°31' E 134°43'4 8.7
2018-Jun-04 01:30N 34°29' E 134°38'4 8.8
2018-Jun-04 01:00N 34°28' E 134°34'5 8.8
2018-Jun-04 00:30N 34°26' E 134°28'6 8.8
2018-Jun-03 23:49N 34°24' E 134°22'  

Dump ship's entire track history